createdAt,value
2019-02-07T00:02:20.949Z,85.58
2019-02-07T00:07:29.262Z,83.49
2019-02-07T00:12:37.492Z,79.28
2019-02-07T00:17:45.969Z,76.71
2019-02-07T00:22:54.313Z,85.43
2019-02-07T00:28:02.450Z,88.97
2019-02-07T00:33:10.724Z,76.28
2019-02-07T00:38:19.046Z,61.76
2019-02-07T00:43:27.191Z,58.37
2019-02-07T00:48:35.586Z,55.44
2019-02-07T00:53:43.836Z,56.69
2019-02-07T00:58:52.128Z,58.04
2019-02-07T01:04:00.380Z,56.07
2019-02-07T01:09:08.729Z,55.55
2019-02-07T01:14:17.240Z,54.39
2019-02-07T01:19:25.580Z,51.73
2019-02-07T01:24:33.740Z,57.92
2019-02-07T01:29:42.072Z,52.50
2019-02-07T01:34:48.787Z,54.74
2019-02-07T01:39:56.922Z,54.42
2019-02-07T01:45:12.865Z,54.09
2019-02-07T01:50:12.367Z,56.30
2019-02-07T01:55:20.586Z,50.40
2019-02-07T02:00:28.837Z,50.03
2019-02-07T02:05:37.569Z,51.56
2019-02-07T02:10:45.869Z,52.31
2019-02-07T02:15:54.097Z,52.67
2019-02-07T02:21:02.385Z,54.21
2019-02-07T02:26:10.703Z,60.04
2019-02-07T02:31:19.048Z,56.78
2019-02-07T02:36:27.361Z,56.32
2019-02-07T02:41:35.473Z,53.23
2019-02-07T02:46:43.725Z,48.60
2019-02-07T02:51:52.048Z,54.36
2019-02-07T02:57:00.324Z,49.67
2019-02-07T03:02:08.038Z,45.40
2019-02-07T03:07:16.599Z,45.52
2019-02-07T03:12:24.909Z,41.24
2019-02-07T03:17:33.160Z,43.84
2019-02-07T03:22:41.530Z,44.69
2019-02-07T03:27:49.818Z,41.19
2019-02-07T03:32:58.162Z,40.76
2019-02-07T03:38:06.777Z,39.55
2019-02-07T03:43:15.109Z,39.94
2019-02-07T03:48:23.345Z,47.25
2019-02-07T03:53:31.687Z,49.39
2019-02-07T03:58:39.962Z,44.59
2019-02-07T04:03:48.198Z,46.10
2019-02-07T04:08:56.462Z,41.43
2019-02-07T04:14:04.753Z,41.91
2019-02-07T04:19:13.014Z,44.77
2019-02-07T04:24:21.346Z,40.97
2019-02-07T04:29:29.584Z,37.86
2019-02-07T04:34:37.903Z,36.17
2019-02-07T04:39:46.113Z,35.41
2019-02-07T04:44:54.355Z,34.57
2019-02-07T04:50:02.553Z,34.40
2019-02-07T04:55:10.813Z,33.05
2019-02-07T05:00:19.035Z,33.44
2019-02-07T05:05:27.701Z,31.87
2019-02-07T05:10:36.129Z,31.18
2019-02-07T05:15:44.313Z,33.77
2019-02-07T05:20:52.648Z,30.61
2019-02-07T05:26:00.949Z,30.26
2019-02-07T05:31:09.185Z,33.38
2019-02-07T05:36:17.441Z,30.49
2019-02-07T05:41:25.711Z,30.91
2019-02-07T05:46:34.237Z,30.17
2019-02-07T05:51:42.481Z,30.56
2019-02-07T05:56:51.269Z,30.54
2019-02-07T06:01:59.525Z,28.22
2019-02-07T06:07:08.136Z,28.30
2019-02-07T06:12:16.421Z,25.11
2019-02-07T06:17:24.687Z,27.58
2019-02-07T06:22:33.022Z,26.53
2019-02-07T06:27:41.449Z,26.81
2019-02-07T06:32:49.593Z,26.90
2019-02-07T06:37:58.194Z,26.69
2019-02-07T06:43:06.462Z,23.95
2019-02-07T06:48:15.071Z,24.66
2019-02-07T06:53:23.325Z,24.06
2019-02-07T06:58:31.997Z,25.49
2019-02-07T07:03:40.317Z,25.77
2019-02-07T07:08:48.650Z,23.69
2019-02-07T07:13:57.016Z,25.27
2019-02-07T07:19:05.666Z,24.75
2019-02-07T07:24:13.865Z,25.37
2019-02-07T07:29:20.593Z,24.98
2019-02-07T07:34:28.816Z,26.46
2019-02-07T07:39:37.216Z,26.18
2019-02-07T07:44:45.507Z,26.14
2019-02-07T07:49:53.820Z,24.49
2019-02-07T07:55:02.085Z,24.58
2019-02-07T08:00:10.364Z,23.48
2019-02-07T08:05:18.657Z,24.59
2019-02-07T08:10:27.606Z,22.61
2019-02-07T08:15:35.804Z,24.04
2019-02-07T08:20:44.008Z,23.42
2019-02-07T08:25:52.325Z,23.58
2019-02-07T08:31:00.533Z,23.81
2019-02-07T08:36:08.817Z,23.55
2019-02-07T08:41:17.070Z,25.10
2019-02-07T08:46:25.442Z,24.86
2019-02-07T08:51:33.662Z,25.72
2019-02-07T08:56:41.306Z,25.42
2019-02-07T09:01:49.638Z,26.39
2019-02-07T09:06:58.228Z,24.68
2019-02-07T09:12:06.454Z,25.29
2019-02-07T09:17:14.721Z,26.82
2019-02-07T09:22:23.892Z,24.22
2019-02-07T09:27:30.603Z,26.06
2019-02-07T09:32:38.929Z,25.32
2019-02-07T09:37:47.066Z,23.07
2019-02-07T09:42:55.254Z,22.50
2019-02-07T09:48:03.887Z,20.57
2019-02-07T09:53:12.133Z,21.16
2019-02-07T09:58:20.329Z,22.44
2019-02-07T10:03:28.570Z,23.83
2019-02-07T10:08:36.939Z,23.68
2019-02-07T10:13:45.849Z,22.34
2019-02-07T10:18:54.088Z,22.81
2019-02-07T10:24:02.272Z,22.30
2019-02-07T10:29:10.529Z,23.33
2019-02-07T10:34:18.902Z,21.64
2019-02-07T10:39:26.860Z,20.37
2019-02-07T10:44:34.442Z,21.28
2019-02-07T10:49:42.556Z,21.29
2019-02-07T10:54:50.673Z,21.83
2019-02-07T10:59:58.867Z,21.87
2019-02-07T11:05:06.998Z,22.16
2019-02-07T11:10:15.246Z,22.00
2019-02-07T11:15:23.365Z,23.38
2019-02-07T11:20:31.496Z,22.04
2019-02-07T11:25:39.665Z,20.98
2019-02-07T11:30:47.807Z,23.65
2019-02-07T11:35:56.051Z,22.77
2019-02-07T11:41:04.240Z,22.58
2019-02-07T11:46:12.461Z,22.97
2019-02-07T11:51:20.527Z,23.36
2019-02-07T11:56:28.803Z,21.11
2019-02-07T12:01:37.661Z,20.00
2019-02-07T12:06:45.845Z,18.30
2019-02-07T12:11:53.996Z,16.96
2019-02-07T12:17:02.314Z,15.76
2019-02-07T12:22:10.432Z,15.30
2019-02-07T12:27:18.730Z,14.08
2019-02-07T12:32:27.805Z,13.20
2019-02-07T12:37:35.937Z,12.57
2019-02-07T12:42:43.470Z,12.41
2019-02-07T12:47:51.563Z,11.33
2019-02-07T12:52:59.893Z,12.02
2019-02-07T12:58:08.217Z,11.35
2019-02-07T13:03:16.352Z,13.41
2019-02-07T13:08:24.495Z,11.30
2019-02-07T13:13:32.648Z,10.81
2019-02-07T13:18:40.733Z,11.66
2019-02-07T13:23:48.986Z,11.75
2019-02-07T13:28:57.189Z,11.34
2019-02-07T13:34:05.354Z,11.30
2019-02-07T13:39:13.481Z,11.60
2019-02-07T13:44:21.606Z,9.80
2019-02-07T13:49:29.866Z,10.27
2019-02-07T13:54:38.167Z,9.60
2019-02-07T13:59:46.283Z,10.08
2019-02-07T14:04:54.393Z,8.77
2019-02-07T14:10:02.528Z,10.77
2019-02-07T14:15:10.815Z,9.93
2019-02-07T14:20:19.157Z,8.42
2019-02-07T14:25:27.297Z,11.19
2019-02-07T14:30:35.417Z,10.84
2019-02-07T14:35:43.587Z,9.49
2019-02-07T14:40:51.931Z,10.64
2019-02-07T14:46:00.221Z,11.27
2019-02-07T14:51:08.420Z,10.18
2019-02-07T14:56:16.654Z,11.66
2019-02-07T15:01:25.433Z,14.68
2019-02-07T15:06:33.581Z,12.25
2019-02-07T15:11:41.705Z,13.41
2019-02-07T15:16:50.051Z,11.12
2019-02-07T15:21:58.327Z,11.68
2019-02-07T15:27:06.653Z,12.07
2019-02-07T15:32:14.929Z,11.71
2019-02-07T15:37:23.509Z,12.63
2019-02-07T15:42:31.626Z,12.69
2019-02-07T15:47:39.774Z,11.24
2019-02-07T15:52:47.934Z,12.62
2019-02-07T15:57:56.090Z,12.68
2019-02-07T16:03:04.239Z,11.83
2019-02-07T16:08:11.950Z,12.41
2019-02-07T16:13:20.211Z,12.79
2019-02-07T16:18:28.507Z,12.67
2019-02-07T16:23:36.627Z,10.88
2019-02-07T16:28:44.456Z,12.79
2019-02-07T16:33:52.829Z,13.13
2019-02-07T16:39:01.101Z,12.75
2019-02-07T16:44:09.468Z,10.69
2019-02-07T16:49:17.790Z,12.31
2019-02-07T16:54:26.066Z,12.63
2019-02-07T16:59:34.248Z,11.27
2019-02-07T17:04:42.546Z,11.87
2019-02-07T17:09:50.961Z,13.10
2019-02-07T17:14:59.184Z,13.52
2019-02-07T17:20:14.492Z,13.75
2019-02-07T17:25:15.887Z,12.31
2019-02-07T17:30:23.981Z,12.15
2019-02-07T17:35:32.108Z,12.89
2019-02-07T17:40:40.393Z,13.01
2019-02-07T17:45:48.566Z,10.62
2019-02-07T17:50:56.689Z,12.85
2019-02-07T17:56:04.763Z,9.88
2019-02-07T18:01:12.805Z,12.32
2019-02-07T18:06:20.913Z,13.42
2019-02-07T18:11:28.947Z,13.00
2019-02-07T18:16:37.185Z,11.77
2019-02-07T18:21:45.313Z,11.81
2019-02-07T18:26:53.477Z,10.47
2019-02-07T18:32:01.614Z,11.53
2019-02-07T18:37:09.686Z,10.56
2019-02-07T18:42:18.584Z,9.73
2019-02-07T18:47:27.702Z,9.05
2019-02-07T18:52:35.860Z,9.05
2019-02-07T18:57:44.260Z,11.97
2019-02-07T19:02:52.550Z,9.30
2019-02-07T19:08:00.656Z,10.42
2019-02-07T19:13:08.808Z,11.65
2019-02-07T19:18:16.996Z,8.26
2019-02-07T19:23:25.184Z,8.12
2019-02-07T19:28:33.421Z,7.54
2019-02-07T19:33:41.616Z,7.89
2019-02-07T19:38:50.017Z,9.35
2019-02-07T19:43:58.336Z,8.06
2019-02-07T19:49:06.537Z,8.67
2019-02-07T19:54:14.810Z,8.77
2019-02-07T19:59:23.021Z,11.21
2019-02-07T20:04:31.193Z,8.45
2019-02-07T20:09:39.298Z,7.85
2019-02-07T20:14:47.732Z,8.73
2019-02-07T20:19:55.869Z,8.99
2019-02-07T20:25:03.961Z,7.02
2019-02-07T20:30:12.008Z,10.81
2019-02-07T20:35:20.120Z,12.64
2019-02-07T20:40:28.433Z,6.88
2019-02-07T20:45:36.696Z,6.02
2019-02-07T20:50:44.957Z,5.47
2019-02-07T20:55:53.696Z,5.61
2019-02-07T21:01:01.869Z,5.12
2019-02-07T21:06:10.020Z,5.44
2019-02-07T21:11:18.144Z,5.46
2019-02-07T21:16:26.489Z,5.66
2019-02-07T21:21:34.944Z,5.34
2019-02-07T21:26:43.057Z,4.76
2019-02-07T21:31:51.475Z,6.99
2019-02-07T21:36:59.801Z,4.76
2019-02-07T21:42:07.905Z,6.05
2019-02-07T21:47:16.036Z,5.74
2019-02-07T21:52:24.250Z,8.15
2019-02-07T21:57:32.627Z,6.33
2019-02-07T22:02:40.747Z,5.34
2019-02-07T22:07:49.198Z,6.60
2019-02-07T22:12:57.596Z,5.90
2019-02-07T22:18:05.973Z,5.60
2019-02-07T22:23:14.641Z,6.90
2019-02-07T22:28:22.960Z,7.91
2019-02-07T22:33:31.758Z,8.83
2019-02-07T22:38:39.933Z,6.93
2019-02-07T22:43:48.148Z,6.62
2019-02-07T22:48:56.502Z,7.64
2019-02-07T22:54:04.911Z,7.83
2019-02-07T22:59:12.945Z,7.37
2019-02-07T23:04:21.112Z,7.11
2019-02-07T23:09:29.310Z,6.57
2019-02-07T23:14:37.403Z,6.90
2019-02-07T23:19:45.529Z,6.35
2019-02-07T23:24:53.791Z,7.80
2019-02-07T23:30:01.861Z,7.10
2019-02-07T23:35:09.988Z,8.33
2019-02-07T23:40:18.106Z,6.72
2019-02-07T23:45:26.260Z,7.27
2019-02-07T23:50:34.531Z,6.81
2019-02-07T23:55:42.633Z,6.03
